sensor_id;sensor_type;location;lat;lon;timestamp;P1;durP1;ratioP1;P2;durP2;ratioP2
67696;SDS011;54486;51.442;6.778;2023-03-12T00:00:02;12.05;;;4.65;;
67696;SDS011;54486;51.442;6.778;2023-03-12T00:02:34;11.43;;;4.30;;
67696;SDS011;54486;51.442;6.778;2023-03-12T00:05:02;9.80;;;4.07;;
67696;SDS011;54486;51.442;6.778;2023-03-12T00:07:29;9.60;;;3.95;;
67696;SDS011;54486;51.442;6.778;2023-03-12T00:09:56;10.63;;;3.92;;
67696;SDS011;54486;51.442;6.778;2023-03-12T00:12:23;10.43;;;4.00;;
67696;SDS011;54486;51.442;6.778;2023-03-12T00:14:50;8.68;;;4.20;;
67696;SDS011;54486;51.442;6.778;2023-03-12T00:17:17;9.68;;;3.78;;
67696;SDS011;54486;51.442;6.778;2023-03-12T00:19:45;10.40;;;3.80;;
67696;SDS011;54486;51.442;6.778;2023-03-12T00:22:17;9.20;;;3.92;;
67696;SDS011;54486;51.442;6.778;2023-03-12T00:24:49;9.25;;;4.18;;
67696;SDS011;54486;51.442;6.778;2023-03-12T00:27:19;8.27;;;3.80;;
67696;SDS011;54486;51.442;6.778;2023-03-12T00:29:46;11.73;;;3.70;;
67696;SDS011;54486;51.442;6.778;2023-03-12T00:32:15;9.68;;;3.95;;
67696;SDS011;54486;51.442;6.778;2023-03-12T00:34:42;10.52;;;3.60;;
67696;SDS011;54486;51.442;6.778;2023-03-12T00:37:09;9.57;;;4.28;;
67696;SDS011;54486;51.442;6.778;2023-03-12T00:39:36;9.65;;;4.22;;
67696;SDS011;54486;51.442;6.778;2023-03-12T00:42:03;8.85;;;3.58;;
67696;SDS011;54486;51.442;6.778;2023-03-12T00:44:31;9.80;;;3.72;;
67696;SDS011;54486;51.442;6.778;2023-03-12T00:46:58;8.93;;;3.53;;
67696;SDS011;54486;51.442;6.778;2023-03-12T00:49:25;8.60;;;3.42;;
67696;SDS011;54486;51.442;6.778;2023-03-12T00:51:53;8.57;;;3.40;;
67696;SDS011;54486;51.442;6.778;2023-03-12T00:54:20;8.70;;;3.55;;
67696;SDS011;54486;51.442;6.778;2023-03-12T00:56:47;8.35;;;3.25;;
67696;SDS011;54486;51.442;6.778;2023-03-12T00:59:15;9.43;;;3.50;;
67696;SDS011;54486;51.442;6.778;2023-03-12T01:01:42;9.63;;;3.38;;
67696;SDS011;54486;51.442;6.778;2023-03-12T01:04:10;8.90;;;3.03;;
67696;SDS011;54486;51.442;6.778;2023-03-12T01:06:37;8.27;;;3.17;;
67696;SDS011;54486;51.442;6.778;2023-03-12T01:09:05;9.57;;;3.70;;
67696;SDS011;54486;51.442;6.778;2023-03-12T01:11:33;8.00;;;3.03;;
67696;SDS011;54486;51.442;6.778;2023-03-12T01:14:02;8.98;;;3.58;;
67696;SDS011;54486;51.442;6.778;2023-03-12T01:16:31;7.72;;;3.53;;
67696;SDS011;54486;51.442;6.778;2023-03-12T01:18:59;9.13;;;3.50;;
67696;SDS011;54486;51.442;6.778;2023-03-12T01:21:28;8.60;;;3.35;;
67696;SDS011;54486;51.442;6.778;2023-03-12T01:23:56;8.65;;;3.17;;
67696;SDS011;54486;51.442;6.778;2023-03-12T01:26:24;9.40;;;3.35;;
67696;SDS011;54486;51.442;6.778;2023-03-12T01:28:51;9.90;;;3.13;;
67696;SDS011;54486;51.442;6.778;2023-03-12T01:31:18;8.55;;;3.25;;
67696;SDS011;54486;51.442;6.778;2023-03-12T01:33:49;8.18;;;3.40;;
67696;SDS011;54486;51.442;6.778;2023-03-12T01:36:24;8.73;;;2.97;;
67696;SDS011;54486;51.442;6.778;2023-03-12T01:38:54;8.95;;;3.33;;
67696;SDS011;54486;51.442;6.778;2023-03-12T01:41:24;8.50;;;3.00;;
67696;SDS011;54486;51.442;6.778;2023-03-12T01:43:52;8.43;;;3.10;;
67696;SDS011;54486;51.442;6.778;2023-03-12T01:46:25;9.02;;;3.45;;
67696;SDS011;54486;51.442;6.778;2023-03-12T01:54:14;7.97;;;2.80;;
67696;SDS011;54486;51.442;6.778;2023-03-12T01:56:47;9.00;;;2.85;;
67696;SDS011;54486;51.442;6.778;2023-03-12T01:59:17;7.82;;;2.97;;
67696;SDS011;54486;51.442;6.778;2023-03-12T02:01:48;6.70;;;2.75;;
67696;SDS011;54486;51.442;6.778;2023-03-12T02:04:17;6.60;;;2.33;;
67696;SDS011;54486;51.442;6.778;2023-03-12T02:09:22;8.25;;;2.90;;
67696;SDS011;54486;51.442;6.778;2023-03-12T02:11:50;8.25;;;3.03;;
67696;SDS011;54486;51.442;6.778;2023-03-12T02:14:17;7.43;;;3.38;;
67696;SDS011;54486;51.442;6.778;2023-03-12T02:16:44;7.13;;;2.45;;
67696;SDS011;54486;51.442;6.778;2023-03-12T02:19:18;8.27;;;3.00;;
67696;SDS011;54486;51.442;6.778;2023-03-12T02:22:09;10.30;;;2.70;;
67696;SDS011;54486;51.442;6.778;2023-03-12T02:24:50;9.80;;;2.60;;
67696;SDS011;54486;51.442;6.778;2023-03-12T02:27:39;6.75;;;2.45;;
67696;SDS011;54486;51.442;6.778;2023-03-12T02:30:07;7.47;;;3.03;;
67696;SDS011;54486;51.442;6.778;2023-03-12T02:32:36;7.93;;;3.17;;
67696;SDS011;54486;51.442;6.778;2023-03-12T02:35:05;9.90;;;2.70;;
67696;SDS011;54486;51.442;6.778;2023-03-12T02:37:33;9.05;;;2.70;;
67696;SDS011;54486;51.442;6.778;2023-03-12T02:40:02;6.88;;;2.30;;
67696;SDS011;54486;51.442;6.778;2023-03-12T02:42:37;9.32;;;3.20;;
67696;SDS011;54486;51.442;6.778;2023-03-12T02:45:05;8.55;;;3.00;;
67696;SDS011;54486;51.442;6.778;2023-03-12T02:47:32;7.10;;;2.57;;
67696;SDS011;54486;51.442;6.778;2023-03-12T02:50:00;9.27;;;2.80;;
67696;SDS011;54486;51.442;6.778;2023-03-12T02:52:27;8.80;;;2.53;;
67696;SDS011;54486;51.442;6.778;2023-03-12T02:55:01;8.98;;;3.35;;
67696;SDS011;54486;51.442;6.778;2023-03-12T02:57:29;8.57;;;3.20;;
67696;SDS011;54486;51.442;6.778;2023-03-12T02:59:56;8.23;;;3.28;;
67696;SDS011;54486;51.442;6.778;2023-03-12T03:02:24;9.35;;;2.55;;
67696;SDS011;54486;51.442;6.778;2023-03-12T03:04:51;7.63;;;3.00;;
67696;SDS011;54486;51.442;6.778;2023-03-12T03:07:19;7.13;;;2.97;;
67696;SDS011;54486;51.442;6.778;2023-03-12T03:09:46;8.93;;;2.75;;
67696;SDS011;54486;51.442;6.778;2023-03-12T03:12:13;8.57;;;2.97;;
67696;SDS011;54486;51.442;6.778;2023-03-12T03:14:39;8.98;;;3.00;;
67696;SDS011;54486;51.442;6.778;2023-03-12T03:17:07;8.68;;;3.50;;
67696;SDS011;54486;51.442;6.778;2023-03-12T03:19:34;8.98;;;2.67;;
67696;SDS011;54486;51.442;6.778;2023-03-12T03:22:01;8.95;;;3.05;;
67696;SDS011;54486;51.442;6.778;2023-03-12T03:24:28;8.73;;;3.05;;
67696;SDS011;54486;51.442;6.778;2023-03-12T03:26:55;7.95;;;2.85;;
67696;SDS011;54486;51.442;6.778;2023-03-12T03:29:22;8.20;;;2.70;;
67696;SDS011;54486;51.442;6.778;2023-03-12T03:31:49;8.63;;;2.78;;
67696;SDS011;54486;51.442;6.778;2023-03-12T03:34:16;9.15;;;2.90;;
67696;SDS011;54486;51.442;6.778;2023-03-12T03:36:43;9.35;;;2.70;;
67696;SDS011;54486;51.442;6.778;2023-03-12T03:39:10;8.00;;;3.88;;
67696;SDS011;54486;51.442;6.778;2023-03-12T03:41:37;8.02;;;2.70;;
67696;SDS011;54486;51.442;6.778;2023-03-12T03:44:05;8.07;;;3.45;;
67696;SDS011;54486;51.442;6.778;2023-03-12T03:46:33;8.88;;;2.75;;
67696;SDS011;54486;51.442;6.778;2023-03-12T03:49:03;8.90;;;2.92;;
67696;SDS011;54486;51.442;6.778;2023-03-12T03:51:31;9.60;;;2.90;;
67696;SDS011;54486;51.442;6.778;2023-03-12T03:53:58;8.73;;;2.92;;
67696;SDS011;54486;51.442;6.778;2023-03-12T03:56:26;7.53;;;2.90;;
67696;SDS011;54486;51.442;6.778;2023-03-12T03:58:53;8.50;;;3.03;;
67696;SDS011;54486;51.442;6.778;2023-03-12T04:01:23;7.60;;;2.80;;
67696;SDS011;54486;51.442;6.778;2023-03-12T04:03:51;7.63;;;2.58;;
67696;SDS011;54486;51.442;6.778;2023-03-12T04:06:18;7.65;;;2.83;;
67696;SDS011;54486;51.442;6.778;2023-03-12T04:08:46;7.53;;;2.78;;
67696;SDS011;54486;51.442;6.778;2023-03-12T04:11:14;8.35;;;2.75;;
67696;SDS011;54486;51.442;6.778;2023-03-12T04:13:42;6.97;;;2.70;;
67696;SDS011;54486;51.442;6.778;2023-03-12T04:16:10;10.18;;;2.70;;
67696;SDS011;54486;51.442;6.778;2023-03-12T04:18:37;9.18;;;2.80;;
67696;SDS011;54486;51.442;6.778;2023-03-12T04:21:06;7.68;;;2.50;;
67696;SDS011;54486;51.442;6.778;2023-03-12T04:23:34;7.07;;;2.70;;
67696;SDS011;54486;51.442;6.778;2023-03-12T04:26:02;8.23;;;2.90;;
67696;SDS011;54486;51.442;6.778;2023-03-12T04:28:30;7.82;;;2.90;;
67696;SDS011;54486;51.442;6.778;2023-03-12T04:30:59;7.35;;;2.58;;
67696;SDS011;54486;51.442;6.778;2023-03-12T04:33:31;6.60;;;2.40;;
67696;SDS011;54486;51.442;6.778;2023-03-12T04:36:01;7.27;;;2.47;;
67696;SDS011;54486;51.442;6.778;2023-03-12T04:38:28;8.07;;;2.95;;
67696;SDS011;54486;51.442;6.778;2023-03-12T04:43:26;7.70;;;2.83;;
67696;SDS011;54486;51.442;6.778;2023-03-12T04:45:55;7.97;;;2.40;;
67696;SDS011;54486;51.442;6.778;2023-03-12T04:48:23;7.40;;;2.70;;
67696;SDS011;54486;51.442;6.778;2023-03-12T04:50:50;7.50;;;2.88;;
67696;SDS011;54486;51.442;6.778;2023-03-12T04:53:18;9.25;;;2.20;;
67696;SDS011;54486;51.442;6.778;2023-03-12T04:55:46;7.70;;;2.45;;
67696;SDS011;54486;51.442;6.778;2023-03-12T04:58:13;7.85;;;2.10;;
67696;SDS011;54486;51.442;6.778;2023-03-12T05:00:40;7.80;;;2.35;;
67696;SDS011;54486;51.442;6.778;2023-03-12T05:03:08;8.82;;;2.40;;
67696;SDS011;54486;51.442;6.778;2023-03-12T05:05:36;7.43;;;2.40;;
67696;SDS011;54486;51.442;6.778;2023-03-12T05:08:03;6.78;;;2.28;;
67696;SDS011;54486;51.442;6.778;2023-03-12T05:10:30;7.97;;;2.17;;
67696;SDS011;54486;51.442;6.778;2023-03-12T05:12:58;6.30;;;2.40;;
67696;SDS011;54486;51.442;6.778;2023-03-12T05:15:25;7.07;;;2.35;;
67696;SDS011;54486;51.442;6.778;2023-03-12T05:17:52;7.30;;;2.63;;
67696;SDS011;54486;51.442;6.778;2023-03-12T05:20:20;8.48;;;2.63;;
67696;SDS011;54486;51.442;6.778;2023-03-12T05:22:47;7.17;;;2.73;;
67696;SDS011;54486;51.442;6.778;2023-03-12T05:25:14;7.95;;;2.92;;
67696;SDS011;54486;51.442;6.778;2023-03-12T05:27:42;7.18;;;2.80;;
67696;SDS011;54486;51.442;6.778;2023-03-12T05:30:09;6.95;;;2.20;;
67696;SDS011;54486;51.442;6.778;2023-03-12T05:32:38;7.63;;;2.20;;
67696;SDS011;54486;51.442;6.778;2023-03-12T05:35:05;7.00;;;2.65;;
67696;SDS011;54486;51.442;6.778;2023-03-12T05:37:32;6.53;;;2.25;;
67696;SDS011;54486;51.442;6.778;2023-03-12T05:40:00;7.88;;;2.80;;
67696;SDS011;54486;51.442;6.778;2023-03-12T05:42:27;8.63;;;3.10;;
67696;SDS011;54486;51.442;6.778;2023-03-12T05:44:53;8.82;;;2.72;;
67696;SDS011;54486;51.442;6.778;2023-03-12T05:47:21;8.18;;;2.72;;
67696;SDS011;54486;51.442;6.778;2023-03-12T05:49:48;7.38;;;2.50;;
67696;SDS011;54486;51.442;6.778;2023-03-12T05:52:15;8.87;;;2.70;;
67696;SDS011;54486;51.442;6.778;2023-03-12T05:54:42;8.50;;;2.42;;
67696;SDS011;54486;51.442;6.778;2023-03-12T05:57:09;7.80;;;2.70;;
67696;SDS011;54486;51.442;6.778;2023-03-12T05:59:36;8.02;;;2.60;;
67696;SDS011;54486;51.442;6.778;2023-03-12T06:02:03;7.20;;;2.97;;
67696;SDS011;54486;51.442;6.778;2023-03-12T06:04:31;9.65;;;2.75;;
67696;SDS011;54486;51.442;6.778;2023-03-12T06:06:58;9.20;;;2.72;;
67696;SDS011;54486;51.442;6.778;2023-03-12T06:09:25;8.40;;;2.72;;
67696;SDS011;54486;51.442;6.778;2023-03-12T06:11:52;7.13;;;2.60;;
67696;SDS011;54486;51.442;6.778;2023-03-12T06:14:19;6.60;;;2.40;;
67696;SDS011;54486;51.442;6.778;2023-03-12T06:16:46;9.07;;;3.05;;
67696;SDS011;54486;51.442;6.778;2023-03-12T06:19:13;7.95;;;2.90;;
67696;SDS011;54486;51.442;6.778;2023-03-12T06:21:41;8.73;;;3.30;;
67696;SDS011;54486;51.442;6.778;2023-03-12T06:24:08;9.82;;;2.97;;
67696;SDS011;54486;51.442;6.778;2023-03-12T06:26:35;10.13;;;2.97;;
67696;SDS011;54486;51.442;6.778;2023-03-12T06:29:02;8.43;;;2.90;;
67696;SDS011;54486;51.442;6.778;2023-03-12T06:31:29;8.32;;;2.65;;
67696;SDS011;54486;51.442;6.778;2023-03-12T06:33:57;8.77;;;2.90;;
67696;SDS011;54486;51.442;6.778;2023-03-12T06:36:24;8.68;;;3.05;;
67696;SDS011;54486;51.442;6.778;2023-03-12T06:38:51;8.25;;;2.80;;
67696;SDS011;54486;51.442;6.778;2023-03-12T06:41:20;7.72;;;2.90;;
67696;SDS011;54486;51.442;6.778;2023-03-12T06:43:48;8.80;;;3.05;;
67696;SDS011;54486;51.442;6.778;2023-03-12T06:46:16;8.07;;;2.67;;
67696;SDS011;54486;51.442;6.778;2023-03-12T06:48:44;8.45;;;2.95;;
67696;SDS011;54486;51.442;6.778;2023-03-12T06:51:12;9.88;;;3.22;;
67696;SDS011;54486;51.442;6.778;2023-03-12T06:53:41;8.95;;;3.28;;
67696;SDS011;54486;51.442;6.778;2023-03-12T06:56:09;8.68;;;2.90;;
67696;SDS011;54486;51.442;6.778;2023-03-12T06:58:36;7.95;;;2.72;;
67696;SDS011;54486;51.442;6.778;2023-03-12T07:01:04;8.45;;;3.20;;
67696;SDS011;54486;51.442;6.778;2023-03-12T07:03:31;8.70;;;2.85;;
67696;SDS011;54486;51.442;6.778;2023-03-12T07:05:58;8.95;;;3.22;;
67696;SDS011;54486;51.442;6.778;2023-03-12T07:08:26;7.55;;;3.38;;
67696;SDS011;54486;51.442;6.778;2023-03-12T07:10:57;8.35;;;3.15;;
67696;SDS011;54486;51.442;6.778;2023-03-12T07:13:28;8.55;;;3.15;;
67696;SDS011;54486;51.442;6.778;2023-03-12T07:15:56;9.80;;;3.60;;
67696;SDS011;54486;51.442;6.778;2023-03-12T07:18:23;8.82;;;3.50;;
67696;SDS011;54486;51.442;6.778;2023-03-12T07:20:51;7.90;;;3.42;;
67696;SDS011;54486;51.442;6.778;2023-03-12T07:23:19;9.37;;;3.53;;
67696;SDS011;54486;51.442;6.778;2023-03-12T07:25:47;8.75;;;3.20;;
67696;SDS011;54486;51.442;6.778;2023-03-12T07:28:14;8.97;;;3.10;;
67696;SDS011;54486;51.442;6.778;2023-03-12T07:30:42;9.43;;;2.90;;
67696;SDS011;54486;51.442;6.778;2023-03-12T07:33:16;9.38;;;3.42;;
67696;SDS011;54486;51.442;6.778;2023-03-12T07:35:45;9.52;;;3.50;;
67696;SDS011;54486;51.442;6.778;2023-03-12T07:38:17;9.15;;;3.00;;
67696;SDS011;54486;51.442;6.778;2023-03-12T07:40:48;8.13;;;3.17;;
67696;SDS011;54486;51.442;6.778;2023-03-12T07:43:17;8.15;;;3.03;;
67696;SDS011;54486;51.442;6.778;2023-03-12T07:45:47;10.43;;;3.38;;
67696;SDS011;54486;51.442;6.778;2023-03-12T07:48:15;10.63;;;3.60;;
67696;SDS011;54486;51.442;6.778;2023-03-12T07:50:42;10.47;;;2.97;;
67696;SDS011;54486;51.442;6.778;2023-03-12T07:53:09;8.88;;;3.58;;
67696;SDS011;54486;51.442;6.778;2023-03-12T07:55:36;8.20;;;2.90;;
67696;SDS011;54486;51.442;6.778;2023-03-12T07:58:04;7.55;;;3.22;;
67696;SDS011;54486;51.442;6.778;2023-03-12T08:00:32;7.53;;;3.20;;
67696;SDS011;54486;51.442;6.778;2023-03-12T08:02:59;8.20;;;3.17;;
67696;SDS011;54486;51.442;6.778;2023-03-12T08:05:27;8.32;;;3.00;;
67696;SDS011;54486;51.442;6.778;2023-03-12T08:07:54;8.90;;;3.35;;
67696;SDS011;54486;51.442;6.778;2023-03-12T08:10:21;9.43;;;3.60;;
67696;SDS011;54486;51.442;6.778;2023-03-12T08:12:51;7.88;;;3.08;;
67696;SDS011;54486;51.442;6.778;2023-03-12T08:15:18;8.80;;;3.70;;
67696;SDS011;54486;51.442;6.778;2023-03-12T08:17:46;8.50;;;3.50;;
67696;SDS011;54486;51.442;6.778;2023-03-12T08:20:13;8.48;;;3.42;;
67696;SDS011;54486;51.442;6.778;2023-03-12T08:22:40;9.73;;;3.65;;
67696;SDS011;54486;51.442;6.778;2023-03-12T08:25:08;7.83;;;3.33;;
67696;SDS011;54486;51.442;6.778;2023-03-12T08:27:35;8.77;;;3.47;;
67696;SDS011;54486;51.442;6.778;2023-03-12T08:30:04;7.72;;;3.33;;
67696;SDS011;54486;51.442;6.778;2023-03-12T08:32:34;8.70;;;3.80;;
67696;SDS011;54486;51.442;6.778;2023-03-12T08:35:02;8.80;;;3.63;;
67696;SDS011;54486;51.442;6.778;2023-03-12T08:37:31;8.80;;;4.20;;
67696;SDS011;54486;51.442;6.778;2023-03-12T08:39:58;8.90;;;3.60;;
67696;SDS011;54486;51.442;6.778;2023-03-12T08:42:26;8.75;;;3.22;;
67696;SDS011;54486;51.442;6.778;2023-03-12T08:44:53;9.27;;;3.93;;
67696;SDS011;54486;51.442;6.778;2023-03-12T08:47:20;10.02;;;3.85;;
67696;SDS011;54486;51.442;6.778;2023-03-12T08:49:47;10.30;;;4.10;;
67696;SDS011;54486;51.442;6.778;2023-03-12T08:52:14;10.23;;;3.90;;
67696;SDS011;54486;51.442;6.778;2023-03-12T08:54:42;10.85;;;4.53;;
67696;SDS011;54486;51.442;6.778;2023-03-12T08:57:09;9.80;;;4.03;;
67696;SDS011;54486;51.442;6.778;2023-03-12T08:59:36;8.90;;;3.83;;
67696;SDS011;54486;51.442;6.778;2023-03-12T09:02:03;9.70;;;4.18;;
67696;SDS011;54486;51.442;6.778;2023-03-12T09:04:30;9.15;;;3.90;;
67696;SDS011;54486;51.442;6.778;2023-03-12T09:06:59;9.63;;;3.92;;
67696;SDS011;54486;51.442;6.778;2023-03-12T09:09:27;9.30;;;3.75;;
67696;SDS011;54486;51.442;6.778;2023-03-12T09:11:53;10.45;;;3.92;;
67696;SDS011;54486;51.442;6.778;2023-03-12T09:14:20;10.45;;;4.65;;
67696;SDS011;54486;51.442;6.778;2023-03-12T09:17:08;10.60;;;4.63;;
67696;SDS011;54486;51.442;6.778;2023-03-12T09:19:35;10.00;;;4.63;;
67696;SDS011;54486;51.442;6.778;2023-03-12T09:22:02;10.73;;;4.03;;
67696;SDS011;54486;51.442;6.778;2023-03-12T09:24:28;10.63;;;4.30;;
67696;SDS011;54486;51.442;6.778;2023-03-12T09:26:55;9.75;;;4.55;;
67696;SDS011;54486;51.442;6.778;2023-03-12T09:29:23;12.25;;;4.53;;
67696;SDS011;54486;51.442;6.778;2023-03-12T09:31:50;9.45;;;4.40;;
67696;SDS011;54486;51.442;6.778;2023-03-12T09:34:18;9.65;;;4.30;;
67696;SDS011;54486;51.442;6.778;2023-03-12T09:36:45;10.52;;;4.57;;
67696;SDS011;54486;51.442;6.778;2023-03-12T09:39:15;10.77;;;5.20;;
67696;SDS011;54486;51.442;6.778;2023-03-12T09:41:47;9.60;;;4.60;;
67696;SDS011;54486;51.442;6.778;2023-03-12T09:44:19;10.03;;;4.77;;
67696;SDS011;54486;51.442;6.778;2023-03-12T09:47:01;11.93;;;5.50;;
67696;SDS011;54486;51.442;6.778;2023-03-12T09:49:47;10.68;;;5.00;;
67696;SDS011;54486;51.442;6.778;2023-03-12T09:52:41;12.27;;;5.78;;
67696;SDS011;54486;51.442;6.778;2023-03-12T09:55:19;11.25;;;5.57;;
67696;SDS011;54486;51.442;6.778;2023-03-12T09:57:48;10.47;;;5.30;;
67696;SDS011;54486;51.442;6.778;2023-03-12T10:00:18;10.35;;;5.72;;
67696;SDS011;54486;51.442;6.778;2023-03-12T10:05:40;10.48;;;5.53;;
67696;SDS011;54486;51.442;6.778;2023-03-12T10:19:19;12.43;;;6.20;;
67696;SDS011;54486;51.442;6.778;2023-03-12T10:22:18;11.05;;;5.97;;
67696;SDS011;54486;51.442;6.778;2023-03-12T10:27:45;12.30;;;6.40;;
67696;SDS011;54486;51.442;6.778;2023-03-12T10:30:18;11.52;;;6.75;;
67696;SDS011;54486;51.442;6.778;2023-03-12T10:33:00;11.55;;;6.20;;
67696;SDS011;54486;51.442;6.778;2023-03-12T10:35:34;13.00;;;6.70;;
67696;SDS011;54486;51.442;6.778;2023-03-12T10:38:03;11.40;;;6.60;;
67696;SDS011;54486;51.442;6.778;2023-03-12T10:40:36;11.87;;;6.33;;
67696;SDS011;54486;51.442;6.778;2023-03-12T10:43:05;12.70;;;6.93;;
67696;SDS011;54486;51.442;6.778;2023-03-12T10:48:04;14.30;;;7.70;;
67696;SDS011;54486;51.442;6.778;2023-03-12T10:50:35;14.13;;;7.93;;
67696;SDS011;54486;51.442;6.778;2023-03-12T10:55:58;13.98;;;7.47;;
67696;SDS011;54486;51.442;6.778;2023-03-12T10:58:38;14.27;;;8.32;;
67696;SDS011;54486;51.442;6.778;2023-03-12T11:01:20;15.98;;;8.27;;
67696;SDS011;54486;51.442;6.778;2023-03-12T11:03:53;15.98;;;8.93;;
67696;SDS011;54486;51.442;6.778;2023-03-12T11:06:35;15.18;;;8.35;;
67696;SDS011;54486;51.442;6.778;2023-03-12T11:11:43;16.13;;;9.00;;
67696;SDS011;54486;51.442;6.778;2023-03-12T11:16:46;15.10;;;8.65;;
67696;SDS011;54486;51.442;6.778;2023-03-12T11:19:25;16.45;;;8.80;;
67696;SDS011;54486;51.442;6.778;2023-03-12T11:22:01;16.25;;;9.05;;
67696;SDS011;54486;51.442;6.778;2023-03-12T11:24:30;17.05;;;9.73;;
67696;SDS011;54486;51.442;6.778;2023-03-12T11:29:38;15.20;;;8.88;;
67696;SDS011;54486;51.442;6.778;2023-03-12T11:32:19;15.73;;;8.70;;
67696;SDS011;54486;51.442;6.778;2023-03-12T11:34:52;13.32;;;8.00;;
67696;SDS011;54486;51.442;6.778;2023-03-12T11:47:58;13.63;;;7.63;;
67696;SDS011;54486;51.442;6.778;2023-03-12T11:53:52;14.82;;;8.07;;
67696;SDS011;54486;51.442;6.778;2023-03-12T11:59:03;13.10;;;7.47;;
67696;SDS011;54486;51.442;6.778;2023-03-12T12:04:41;16.52;;;8.23;;
67696;SDS011;54486;51.442;6.778;2023-03-12T12:16:13;20.17;;;9.27;;
67696;SDS011;54486;51.442;6.778;2023-03-12T12:19:19;17.70;;;8.65;;
67696;SDS011;54486;51.442;6.778;2023-03-12T12:28:08;18.27;;;8.77;;
67696;SDS011;54486;51.442;6.778;2023-03-12T12:30:54;17.27;;;8.90;;
67696;SDS011;54486;51.442;6.778;2023-03-12T12:33:54;17.13;;;9.13;;
67696;SDS011;54486;51.442;6.778;2023-03-12T12:36:28;17.83;;;8.70;;
67696;SDS011;54486;51.442;6.778;2023-03-12T12:39:01;19.17;;;9.37;;
67696;SDS011;54486;51.442;6.778;2023-03-12T12:41:37;17.48;;;9.35;;
67696;SDS011;54486;51.442;6.778;2023-03-12T12:44:11;19.58;;;9.25;;
67696;SDS011;54486;51.442;6.778;2023-03-12T12:46:43;18.45;;;9.15;;
67696;SDS011;54486;51.442;6.778;2023-03-12T12:49:20;22.23;;;9.57;;
67696;SDS011;54486;51.442;6.778;2023-03-12T12:52:01;18.87;;;9.00;;
67696;SDS011;54486;51.442;6.778;2023-03-12T12:57:02;18.13;;;8.73;;
67696;SDS011;54486;51.442;6.778;2023-03-12T12:59:39;18.40;;;8.77;;
67696;SDS011;54486;51.442;6.778;2023-03-12T13:02:18;18.95;;;8.93;;
67696;SDS011;54486;51.442;6.778;2023-03-12T13:04:48;18.58;;;9.15;;
67696;SDS011;54486;51.442;6.778;2023-03-12T13:09:50;21.80;;;9.07;;
67696;SDS011;54486;51.442;6.778;2023-03-12T13:12:32;20.92;;;8.65;;
67696;SDS011;54486;51.442;6.778;2023-03-12T13:15:51;21.17;;;8.85;;
67696;SDS011;54486;51.442;6.778;2023-03-12T13:18:02;24.00;;;8.65;;
67696;SDS011;54486;51.442;6.778;2023-03-12T13:20:41;21.27;;;8.95;;
67696;SDS011;54486;51.442;6.778;2023-03-12T13:33:56;23.03;;;7.53;;
67696;SDS011;54486;51.442;6.778;2023-03-12T13:36:26;23.15;;;7.78;;
67696;SDS011;54486;51.442;6.778;2023-03-12T13:38:55;22.60;;;7.28;;
67696;SDS011;54486;51.442;6.778;2023-03-12T13:46:58;18.08;;;6.65;;
67696;SDS011;54486;51.442;6.778;2023-03-12T13:50:05;19.58;;;6.20;;
67696;SDS011;54486;51.442;6.778;2023-03-12T13:55:13;22.95;;;5.80;;
67696;SDS011;54486;51.442;6.778;2023-03-12T13:57:53;23.50;;;5.67;;
67696;SDS011;54486;51.442;6.778;2023-03-12T14:00:30;21.80;;;6.60;;
67696;SDS011;54486;51.442;6.778;2023-03-12T14:16:55;23.00;;;6.82;;
67696;SDS011;54486;51.442;6.778;2023-03-12T14:19:31;22.83;;;5.40;;
67696;SDS011;54486;51.442;6.778;2023-03-12T14:22:04;21.88;;;5.68;;
67696;SDS011;54486;51.442;6.778;2023-03-12T14:24:37;19.88;;;4.63;;
67696;SDS011;54486;51.442;6.778;2023-03-12T14:27:15;19.48;;;5.15;;
67696;SDS011;54486;51.442;6.778;2023-03-12T14:29:48;22.55;;;5.25;;
67696;SDS011;54486;51.442;6.778;2023-03-12T14:32:25;18.20;;;5.07;;
67696;SDS011;54486;51.442;6.778;2023-03-12T14:35:31;20.30;;;4.80;;
67696;SDS011;54486;51.442;6.778;2023-03-12T14:37:53;18.95;;;4.88;;
67696;SDS011;54486;51.442;6.778;2023-03-12T14:40:48;21.23;;;4.80;;
67696;SDS011;54486;51.442;6.778;2023-03-12T14:45:55;19.52;;;5.25;;
67696;SDS011;54486;51.442;6.778;2023-03-12T14:48:26;19.23;;;4.38;;
67696;SDS011;54486;51.442;6.778;2023-03-12T14:51:03;21.05;;;4.80;;
67696;SDS011;54486;51.442;6.778;2023-03-12T14:53:34;18.67;;;4.43;;
67696;SDS011;54486;51.442;6.778;2023-03-12T14:56:09;17.45;;;4.28;;
67696;SDS011;54486;51.442;6.778;2023-03-12T14:58:45;21.20;;;4.53;;
67696;SDS011;54486;51.442;6.778;2023-03-12T15:01:17;18.38;;;4.43;;
67696;SDS011;54486;51.442;6.778;2023-03-12T15:03:53;20.30;;;4.13;;
67696;SDS011;54486;51.442;6.778;2023-03-12T15:06:27;22.33;;;5.57;;
67696;SDS011;54486;51.442;6.778;2023-03-12T15:08:57;21.27;;;4.47;;
67696;SDS011;54486;51.442;6.778;2023-03-12T15:11:28;18.73;;;3.80;;
67696;SDS011;54486;51.442;6.778;2023-03-12T15:14:00;19.13;;;4.00;;
67696;SDS011;54486;51.442;6.778;2023-03-12T15:16:49;22.97;;;4.70;;
67696;SDS011;54486;51.442;6.778;2023-03-12T15:19:18;18.53;;;4.50;;
67696;SDS011;54486;51.442;6.778;2023-03-12T15:21:48;18.77;;;4.00;;
67696;SDS011;54486;51.442;6.778;2023-03-12T15:24:16;19.45;;;4.22;;
67696;SDS011;54486;51.442;6.778;2023-03-12T15:26:46;19.30;;;3.90;;
67696;SDS011;54486;51.442;6.778;2023-03-12T15:31:41;18.40;;;3.63;;
67696;SDS011;54486;51.442;6.778;2023-03-12T15:34:10;17.98;;;4.05;;
67696;SDS011;54486;51.442;6.778;2023-03-12T15:36:47;15.73;;;3.58;;
67696;SDS011;54486;51.442;6.778;2023-03-12T15:39:25;18.47;;;4.00;;
67696;SDS011;54486;51.442;6.778;2023-03-12T15:41:59;22.77;;;4.28;;
67696;SDS011;54486;51.442;6.778;2023-03-12T15:44:29;19.25;;;3.60;;
67696;SDS011;54486;51.442;6.778;2023-03-12T15:47:09;16.63;;;3.90;;
67696;SDS011;54486;51.442;6.778;2023-03-12T15:49:38;18.35;;;3.88;;
67696;SDS011;54486;51.442;6.778;2023-03-12T15:55:05;19.73;;;3.97;;
67696;SDS011;54486;51.442;6.778;2023-03-12T15:57:45;17.15;;;3.60;;
67696;SDS011;54486;51.442;6.778;2023-03-12T16:03:15;21.00;;;3.70;;
67696;SDS011;54486;51.442;6.778;2023-03-12T16:05:44;16.98;;;3.70;;
67696;SDS011;54486;51.442;6.778;2023-03-12T16:11:26;18.45;;;3.65;;
67696;SDS011;54486;51.442;6.778;2023-03-12T16:13:59;21.13;;;4.13;;
67696;SDS011;54486;51.442;6.778;2023-03-12T16:16:30;19.88;;;3.78;;
67696;SDS011;54486;51.442;6.778;2023-03-12T16:18:57;17.10;;;3.60;;
67696;SDS011;54486;51.442;6.778;2023-03-12T16:21:25;18.90;;;3.55;;
67696;SDS011;54486;51.442;6.778;2023-03-12T16:23:52;19.30;;;3.90;;
67696;SDS011;54486;51.442;6.778;2023-03-12T16:26:20;19.25;;;3.85;;
67696;SDS011;54486;51.442;6.778;2023-03-12T16:28:48;18.70;;;3.47;;
67696;SDS011;54486;51.442;6.778;2023-03-12T16:31:15;16.40;;;3.70;;
67696;SDS011;54486;51.442;6.778;2023-03-12T16:33:42;18.88;;;3.83;;
67696;SDS011;54486;51.442;6.778;2023-03-12T16:36:14;21.75;;;4.03;;
67696;SDS011;54486;51.442;6.778;2023-03-12T16:39:23;18.40;;;3.53;;
67696;SDS011;54486;51.442;6.778;2023-03-12T16:41:50;16.77;;;3.63;;
67696;SDS011;54486;51.442;6.778;2023-03-12T16:44:18;17.88;;;4.00;;
67696;SDS011;54486;51.442;6.778;2023-03-12T16:46:48;18.20;;;4.20;;
67696;SDS011;54486;51.442;6.778;2023-03-12T16:49:17;19.33;;;3.92;;
67696;SDS011;54486;51.442;6.778;2023-03-12T16:51:46;18.20;;;3.35;;
67696;SDS011;54486;51.442;6.778;2023-03-12T16:54:16;16.42;;;3.90;;
67696;SDS011;54486;51.442;6.778;2023-03-12T16:56:45;15.98;;;3.35;;
67696;SDS011;54486;51.442;6.778;2023-03-12T16:59:20;20.50;;;3.75;;
67696;SDS011;54486;51.442;6.778;2023-03-12T17:01:53;14.50;;;2.97;;
67696;SDS011;54486;51.442;6.778;2023-03-12T17:04:46;16.77;;;3.20;;
67696;SDS011;54486;51.442;6.778;2023-03-12T17:07:14;16.40;;;3.53;;
67696;SDS011;54486;51.442;6.778;2023-03-12T17:09:41;18.08;;;3.72;;